sensor_id;sensor_type;location;lat;lon;timestamp;P1;durP1;ratioP1;P2;durP2;ratioP2
73940;SDS011;62294;48.554;10.202;2023-02-15T00:01:43;26.08;;;10.65;;
73940;SDS011;62294;48.554;10.202;2023-02-15T00:04:09;22.65;;;11.10;;
73940;SDS011;62294;48.554;10.202;2023-02-15T00:06:39;27.45;;;11.20;;
73940;SDS011;62294;48.554;10.202;2023-02-15T00:09:06;28.60;;;11.75;;
73940;SDS011;62294;48.554;10.202;2023-02-15T00:11:32;27.73;;;12.23;;
73940;SDS011;62294;48.554;10.202;2023-02-15T00:14:31;30.58;;;12.48;;
73940;SDS011;62294;48.554;10.202;2023-02-15T00:16:57;22.60;;;11.18;;
73940;SDS011;62294;48.554;10.202;2023-02-15T00:19:25;26.65;;;10.75;;
73940;SDS011;62294;48.554;10.202;2023-02-15T00:21:52;33.35;;;11.98;;
73940;SDS011;62294;48.554;10.202;2023-02-15T00:24:19;33.05;;;13.82;;
73940;SDS011;62294;48.554;10.202;2023-02-15T00:26:46;26.45;;;12.48;;
73940;SDS011;62294;48.554;10.202;2023-02-15T00:29:14;30.83;;;11.82;;
73940;SDS011;62294;48.554;10.202;2023-02-15T00:31:41;25.75;;;11.85;;
73940;SDS011;62294;48.554;10.202;2023-02-15T00:34:15;34.75;;;12.57;;
73940;SDS011;62294;48.554;10.202;2023-02-15T00:36:52;28.63;;;11.57;;
73940;SDS011;62294;48.554;10.202;2023-02-15T00:39:18;26.88;;;12.23;;
73940;SDS011;62294;48.554;10.202;2023-02-15T00:41:46;27.00;;;13.05;;
73940;SDS011;62294;48.554;10.202;2023-02-15T00:44:13;30.70;;;12.95;;
73940;SDS011;62294;48.554;10.202;2023-02-15T00:46:40;32.78;;;12.85;;
73940;SDS011;62294;48.554;10.202;2023-02-15T00:49:07;23.35;;;10.07;;
73940;SDS011;62294;48.554;10.202;2023-02-15T00:51:33;25.83;;;10.93;;
73940;SDS011;62294;48.554;10.202;2023-02-15T00:54:00;23.65;;;11.55;;
73940;SDS011;62294;48.554;10.202;2023-02-15T00:56:27;21.83;;;11.00;;
73940;SDS011;62294;48.554;10.202;2023-02-15T00:58:54;24.92;;;10.90;;
73940;SDS011;62294;48.554;10.202;2023-02-15T01:01:21;27.13;;;12.45;;
73940;SDS011;62294;48.554;10.202;2023-02-15T01:03:48;22.17;;;9.85;;
73940;SDS011;62294;48.554;10.202;2023-02-15T01:06:15;23.92;;;10.40;;
73940;SDS011;62294;48.554;10.202;2023-02-15T01:08:43;19.90;;;10.18;;
73940;SDS011;62294;48.554;10.202;2023-02-15T01:11:12;19.40;;;9.40;;
73940;SDS011;62294;48.554;10.202;2023-02-15T01:13:49;26.02;;;10.80;;
73940;SDS011;62294;48.554;10.202;2023-02-15T01:16:17;18.38;;;8.77;;
73940;SDS011;62294;48.554;10.202;2023-02-15T01:18:45;11.75;;;4.93;;
73940;SDS011;62294;48.554;10.202;2023-02-15T01:21:12;14.05;;;8.23;;
73940;SDS011;62294;48.554;10.202;2023-02-15T01:23:41;11.15;;;6.47;;
73940;SDS011;62294;48.554;10.202;2023-02-15T01:26:09;11.85;;;4.95;;
73940;SDS011;62294;48.554;10.202;2023-02-15T01:28:36;18.52;;;8.55;;
73940;SDS011;62294;48.554;10.202;2023-02-15T01:31:07;14.75;;;7.78;;
73940;SDS011;62294;48.554;10.202;2023-02-15T01:33:35;12.25;;;6.28;;
73940;SDS011;62294;48.554;10.202;2023-02-15T01:36:03;18.40;;;9.02;;
73940;SDS011;62294;48.554;10.202;2023-02-15T01:38:30;21.73;;;9.95;;
73940;SDS011;62294;48.554;10.202;2023-02-15T01:40:57;18.27;;;9.38;;
73940;SDS011;62294;48.554;10.202;2023-02-15T01:43:45;17.95;;;8.93;;
73940;SDS011;62294;48.554;10.202;2023-02-15T01:46:14;21.83;;;9.55;;
73940;SDS011;62294;48.554;10.202;2023-02-15T01:48:45;23.52;;;9.15;;
73940;SDS011;62294;48.554;10.202;2023-02-15T01:51:14;16.70;;;8.25;;
73940;SDS011;62294;48.554;10.202;2023-02-15T01:53:47;17.83;;;9.50;;
73940;SDS011;62294;48.554;10.202;2023-02-15T01:56:29;20.10;;;9.43;;
73940;SDS011;62294;48.554;10.202;2023-02-15T01:59:00;24.08;;;9.45;;
73940;SDS011;62294;48.554;10.202;2023-02-15T02:01:30;22.38;;;10.57;;
73940;SDS011;62294;48.554;10.202;2023-02-15T02:06:33;24.17;;;9.80;;
73940;SDS011;62294;48.554;10.202;2023-02-15T02:09:01;21.83;;;10.00;;
73940;SDS011;62294;48.554;10.202;2023-02-15T02:11:28;26.95;;;10.80;;
73940;SDS011;62294;48.554;10.202;2023-02-15T02:13:55;22.92;;;9.88;;
73940;SDS011;62294;48.554;10.202;2023-02-15T02:19:18;19.73;;;8.57;;
73940;SDS011;62294;48.554;10.202;2023-02-15T02:25:33;15.40;;;7.13;;
73940;SDS011;62294;48.554;10.202;2023-02-15T02:36:52;14.57;;;7.53;;
73940;SDS011;62294;48.554;10.202;2023-02-15T02:45:28;6.15;;;3.80;;
73940;SDS011;62294;48.554;10.202;2023-02-15T02:48:25;13.82;;;7.32;;
73940;SDS011;62294;48.554;10.202;2023-02-15T02:50:56;15.70;;;7.70;;
73940;SDS011;62294;48.554;10.202;2023-02-15T02:53:22;18.05;;;8.63;;
73940;SDS011;62294;48.554;10.202;2023-02-15T02:55:50;12.23;;;5.88;;
73940;SDS011;62294;48.554;10.202;2023-02-15T02:58:25;12.70;;;6.13;;
73940;SDS011;62294;48.554;10.202;2023-02-15T03:00:57;11.98;;;6.47;;
73940;SDS011;62294;48.554;10.202;2023-02-15T03:03:34;11.07;;;6.45;;
73940;SDS011;62294;48.554;10.202;2023-02-15T03:06:03;11.55;;;6.10;;
73940;SDS011;62294;48.554;10.202;2023-02-15T03:08:38;13.98;;;6.82;;
73940;SDS011;62294;48.554;10.202;2023-02-15T03:11:08;10.38;;;6.03;;
73940;SDS011;62294;48.554;10.202;2023-02-15T03:13:35;12.07;;;6.05;;
73940;SDS011;62294;48.554;10.202;2023-02-15T03:16:01;10.43;;;5.53;;
73940;SDS011;62294;48.554;10.202;2023-02-15T03:18:51;14.60;;;6.50;;
73940;SDS011;62294;48.554;10.202;2023-02-15T03:21:27;10.13;;;4.78;;
73940;SDS011;62294;48.554;10.202;2023-02-15T03:24:04;17.45;;;7.13;;
73940;SDS011;62294;48.554;10.202;2023-02-15T03:26:35;14.43;;;7.80;;
73940;SDS011;62294;48.554;10.202;2023-02-15T03:29:02;13.02;;;6.68;;
73940;SDS011;62294;48.554;10.202;2023-02-15T03:31:32;14.18;;;7.10;;
73940;SDS011;62294;48.554;10.202;2023-02-15T03:34:03;14.07;;;7.10;;
73940;SDS011;62294;48.554;10.202;2023-02-15T03:36:36;14.80;;;6.43;;
73940;SDS011;62294;48.554;10.202;2023-02-15T03:39:15;12.27;;;6.35;;
73940;SDS011;62294;48.554;10.202;2023-02-15T03:41:48;15.40;;;8.00;;
73940;SDS011;62294;48.554;10.202;2023-02-15T03:44:46;12.27;;;5.90;;
73940;SDS011;62294;48.554;10.202;2023-02-15T03:47:19;11.02;;;6.18;;
73940;SDS011;62294;48.554;10.202;2023-02-15T03:49:53;14.98;;;7.25;;
73940;SDS011;62294;48.554;10.202;2023-02-15T03:52:24;14.52;;;6.93;;
73940;SDS011;62294;48.554;10.202;2023-02-15T03:54:53;15.13;;;7.30;;
73940;SDS011;62294;48.554;10.202;2023-02-15T03:57:22;16.70;;;7.07;;
73940;SDS011;62294;48.554;10.202;2023-02-15T04:00:11;17.65;;;6.30;;
73940;SDS011;62294;48.554;10.202;2023-02-15T04:03:04;15.60;;;7.38;;
73940;SDS011;62294;48.554;10.202;2023-02-15T04:05:42;10.90;;;6.13;;
73940;SDS011;62294;48.554;10.202;2023-02-15T04:08:10;17.02;;;7.28;;
73940;SDS011;62294;48.554;10.202;2023-02-15T04:10:37;13.30;;;7.18;;
73940;SDS011;62294;48.554;10.202;2023-02-15T04:13:20;17.83;;;8.20;;
73940;SDS011;62294;48.554;10.202;2023-02-15T04:15:50;15.15;;;7.65;;
73940;SDS011;62294;48.554;10.202;2023-02-15T04:18:37;12.55;;;7.13;;
73940;SDS011;62294;48.554;10.202;2023-02-15T04:21:27;16.90;;;7.13;;
73940;SDS011;62294;48.554;10.202;2023-02-15T04:24:14;13.10;;;5.97;;
73940;SDS011;62294;48.554;10.202;2023-02-15T04:27:00;9.63;;;5.25;;
73940;SDS011;62294;48.554;10.202;2023-02-15T04:29:27;8.02;;;4.05;;
73940;SDS011;62294;48.554;10.202;2023-02-15T04:31:54;13.15;;;5.97;;
73940;SDS011;62294;48.554;10.202;2023-02-15T04:34:22;12.45;;;4.95;;
73940;SDS011;62294;48.554;10.202;2023-02-15T04:36:49;9.27;;;4.82;;
73940;SDS011;62294;48.554;10.202;2023-02-15T04:39:16;5.32;;;3.08;;
73940;SDS011;62294;48.554;10.202;2023-02-15T04:41:44;13.93;;;6.07;;
73940;SDS011;62294;48.554;10.202;2023-02-15T04:44:11;9.10;;;4.60;;
73940;SDS011;62294;48.554;10.202;2023-02-15T04:46:37;10.27;;;4.82;;
73940;SDS011;62294;48.554;10.202;2023-02-15T04:49:04;11.77;;;6.60;;
73940;SDS011;62294;48.554;10.202;2023-02-15T04:51:34;12.88;;;6.18;;
73940;SDS011;62294;48.554;10.202;2023-02-15T04:54:00;11.77;;;5.72;;
73940;SDS011;62294;48.554;10.202;2023-02-15T04:56:27;11.85;;;6.65;;
73940;SDS011;62294;48.554;10.202;2023-02-15T04:58:55;12.48;;;4.80;;
73940;SDS011;62294;48.554;10.202;2023-02-15T05:01:22;9.75;;;4.95;;
73940;SDS011;62294;48.554;10.202;2023-02-15T05:03:49;13.77;;;6.20;;
73940;SDS011;62294;48.554;10.202;2023-02-15T05:06:15;11.02;;;5.93;;
73940;SDS011;62294;48.554;10.202;2023-02-15T05:08:42;13.20;;;6.50;;
73940;SDS011;62294;48.554;10.202;2023-02-15T05:11:09;8.40;;;4.32;;
73940;SDS011;62294;48.554;10.202;2023-02-15T05:13:35;13.32;;;5.85;;
73940;SDS011;62294;48.554;10.202;2023-02-15T05:16:02;9.55;;;4.68;;
73940;SDS011;62294;48.554;10.202;2023-02-15T05:18:29;9.27;;;4.95;;
73940;SDS011;62294;48.554;10.202;2023-02-15T05:20:55;7.22;;;3.90;;
73940;SDS011;62294;48.554;10.202;2023-02-15T05:23:22;7.35;;;4.28;;
73940;SDS011;62294;48.554;10.202;2023-02-15T05:25:49;9.02;;;5.00;;
73940;SDS011;62294;48.554;10.202;2023-02-15T05:28:35;4.78;;;3.22;;
73940;SDS011;62294;48.554;10.202;2023-02-15T05:31:05;7.68;;;4.68;;
73940;SDS011;62294;48.554;10.202;2023-02-15T05:33:33;10.55;;;4.97;;
73940;SDS011;62294;48.554;10.202;2023-02-15T05:36:00;7.55;;;4.18;;
73940;SDS011;62294;48.554;10.202;2023-02-15T05:38:29;8.80;;;4.35;;
73940;SDS011;62294;48.554;10.202;2023-02-15T05:40:56;9.13;;;4.13;;
73940;SDS011;62294;48.554;10.202;2023-02-15T05:43:23;7.00;;;3.60;;
73940;SDS011;62294;48.554;10.202;2023-02-15T05:45:51;12.70;;;6.43;;
73940;SDS011;62294;48.554;10.202;2023-02-15T05:48:19;12.30;;;7.10;;
73940;SDS011;62294;48.554;10.202;2023-02-15T05:51:01;8.10;;;5.10;;
73940;SDS011;62294;48.554;10.202;2023-02-15T05:53:42;12.15;;;5.63;;
73940;SDS011;62294;48.554;10.202;2023-02-15T05:56:10;9.73;;;4.95;;
73940;SDS011;62294;48.554;10.202;2023-02-15T05:58:40;10.32;;;5.13;;
73940;SDS011;62294;48.554;10.202;2023-02-15T06:01:11;12.68;;;5.75;;
73940;SDS011;62294;48.554;10.202;2023-02-15T06:03:40;9.70;;;5.05;;
73940;SDS011;62294;48.554;10.202;2023-02-15T06:06:08;9.30;;;5.63;;
73940;SDS011;62294;48.554;10.202;2023-02-15T06:08:35;8.73;;;4.75;;
73940;SDS011;62294;48.554;10.202;2023-02-15T06:11:03;10.38;;;5.95;;
73940;SDS011;62294;48.554;10.202;2023-02-15T06:13:30;13.70;;;7.15;;
73940;SDS011;62294;48.554;10.202;2023-02-15T06:15:57;10.57;;;5.70;;
73940;SDS011;62294;48.554;10.202;2023-02-15T06:18:24;13.45;;;6.85;;
73940;SDS011;62294;48.554;10.202;2023-02-15T06:20:51;13.32;;;6.50;;
73940;SDS011;62294;48.554;10.202;2023-02-15T06:23:18;9.65;;;5.32;;
73940;SDS011;62294;48.554;10.202;2023-02-15T06:25:45;11.07;;;5.15;;
73940;SDS011;62294;48.554;10.202;2023-02-15T06:28:12;14.45;;;6.82;;
73940;SDS011;62294;48.554;10.202;2023-02-15T06:30:39;10.63;;;5.32;;
73940;SDS011;62294;48.554;10.202;2023-02-15T06:33:06;11.70;;;6.20;;
73940;SDS011;62294;48.554;10.202;2023-02-15T06:35:32;8.57;;;4.22;;
73940;SDS011;62294;48.554;10.202;2023-02-15T06:37:59;11.40;;;7.07;;
73940;SDS011;62294;48.554;10.202;2023-02-15T06:40:26;11.95;;;6.75;;
73940;SDS011;62294;48.554;10.202;2023-02-15T06:42:52;12.57;;;6.63;;
73940;SDS011;62294;48.554;10.202;2023-02-15T06:45:18;13.00;;;7.40;;
73940;SDS011;62294;48.554;10.202;2023-02-15T06:47:45;21.00;;;6.88;;
73940;SDS011;62294;48.554;10.202;2023-02-15T06:50:11;13.70;;;7.40;;
73940;SDS011;62294;48.554;10.202;2023-02-15T06:52:38;10.02;;;5.18;;
73940;SDS011;62294;48.554;10.202;2023-02-15T06:55:05;9.40;;;6.28;;
73940;SDS011;62294;48.554;10.202;2023-02-15T06:57:32;9.60;;;5.47;;
73940;SDS011;62294;48.554;10.202;2023-02-15T06:59:59;6.70;;;4.53;;
73940;SDS011;62294;48.554;10.202;2023-02-15T07:02:25;11.88;;;5.95;;
73940;SDS011;62294;48.554;10.202;2023-02-15T07:04:52;9.98;;;5.07;;
73940;SDS011;62294;48.554;10.202;2023-02-15T07:07:18;8.27;;;4.53;;
73940;SDS011;62294;48.554;10.202;2023-02-15T07:09:45;8.77;;;4.70;;
73940;SDS011;62294;48.554;10.202;2023-02-15T07:12:11;12.60;;;6.90;;
73940;SDS011;62294;48.554;10.202;2023-02-15T07:17:24;10.45;;;5.10;;
73940;SDS011;62294;48.554;10.202;2023-02-15T07:20:06;11.75;;;6.45;;
73940;SDS011;62294;48.554;10.202;2023-02-15T07:22:34;14.10;;;6.45;;
73940;SDS011;62294;48.554;10.202;2023-02-15T07:25:05;9.68;;;4.88;;
73940;SDS011;62294;48.554;10.202;2023-02-15T07:27:35;17.48;;;7.18;;
73940;SDS011;62294;48.554;10.202;2023-02-15T07:30:02;15.15;;;7.82;;
73940;SDS011;62294;48.554;10.202;2023-02-15T07:32:30;7.60;;;4.60;;
73940;SDS011;62294;48.554;10.202;2023-02-15T07:34:59;12.15;;;6.78;;
73940;SDS011;62294;48.554;10.202;2023-02-15T07:37:26;10.98;;;5.22;;
73940;SDS011;62294;48.554;10.202;2023-02-15T07:39:53;10.38;;;5.95;;
73940;SDS011;62294;48.554;10.202;2023-02-15T07:42:20;8.05;;;4.93;;
73940;SDS011;62294;48.554;10.202;2023-02-15T07:44:47;6.85;;;3.88;;
73940;SDS011;62294;48.554;10.202;2023-02-15T07:47:14;10.77;;;5.72;;
73940;SDS011;62294;48.554;10.202;2023-02-15T07:49:41;9.43;;;5.03;;
73940;SDS011;62294;48.554;10.202;2023-02-15T07:52:07;6.55;;;3.78;;
73940;SDS011;62294;48.554;10.202;2023-02-15T07:54:34;6.40;;;3.75;;
73940;SDS011;62294;48.554;10.202;2023-02-15T07:57:00;5.22;;;3.13;;
73940;SDS011;62294;48.554;10.202;2023-02-15T07:59:27;10.82;;;5.88;;
73940;SDS011;62294;48.554;10.202;2023-02-15T08:01:54;7.13;;;4.30;;
73940;SDS011;62294;48.554;10.202;2023-02-15T08:04:22;8.90;;;5.28;;
73940;SDS011;62294;48.554;10.202;2023-02-15T08:06:51;12.45;;;6.90;;
73940;SDS011;62294;48.554;10.202;2023-02-15T08:09:20;11.70;;;6.80;;
73940;SDS011;62294;48.554;10.202;2023-02-15T08:11:47;16.55;;;7.82;;
73940;SDS011;62294;48.554;10.202;2023-02-15T08:14:15;9.30;;;5.43;;
73940;SDS011;62294;48.554;10.202;2023-02-15T08:19:16;14.18;;;7.57;;
73940;SDS011;62294;48.554;10.202;2023-02-15T08:21:49;8.13;;;4.43;;
73940;SDS011;62294;48.554;10.202;2023-02-15T08:24:21;14.70;;;7.05;;
73940;SDS011;62294;48.554;10.202;2023-02-15T08:26:49;14.95;;;7.13;;
73940;SDS011;62294;48.554;10.202;2023-02-15T08:29:17;14.38;;;8.30;;
73940;SDS011;62294;48.554;10.202;2023-02-15T08:31:45;20.90;;;9.75;;
73940;SDS011;62294;48.554;10.202;2023-02-15T08:34:16;15.32;;;7.63;;
73940;SDS011;62294;48.554;10.202;2023-02-15T08:36:45;11.07;;;5.97;;
73940;SDS011;62294;48.554;10.202;2023-02-15T08:39:12;12.68;;;6.97;;
73940;SDS011;62294;48.554;10.202;2023-02-15T08:41:46;23.70;;;10.73;;
73940;SDS011;62294;48.554;10.202;2023-02-15T08:44:14;13.02;;;5.68;;
73940;SDS011;62294;48.554;10.202;2023-02-15T08:46:43;13.90;;;6.60;;
73940;SDS011;62294;48.554;10.202;2023-02-15T08:49:12;17.13;;;7.60;;
73940;SDS011;62294;48.554;10.202;2023-02-15T08:51:41;17.25;;;8.98;;
73940;SDS011;62294;48.554;10.202;2023-02-15T08:54:09;20.65;;;9.80;;
73940;SDS011;62294;48.554;10.202;2023-02-15T08:56:38;13.38;;;6.90;;
73940;SDS011;62294;48.554;10.202;2023-02-15T08:59:06;14.13;;;7.40;;
73940;SDS011;62294;48.554;10.202;2023-02-15T09:01:38;12.63;;;6.82;;
73940;SDS011;62294;48.554;10.202;2023-02-15T09:04:05;14.90;;;7.22;;
73940;SDS011;62294;48.554;10.202;2023-02-15T09:06:35;14.98;;;7.35;;
73940;SDS011;62294;48.554;10.202;2023-02-15T09:09:03;14.68;;;7.47;;
73940;SDS011;62294;48.554;10.202;2023-02-15T09:11:33;16.63;;;8.85;;
73940;SDS011;62294;48.554;10.202;2023-02-15T09:14:05;16.95;;;8.07;;
73940;SDS011;62294;48.554;10.202;2023-02-15T09:16:35;19.08;;;9.15;;
73940;SDS011;62294;48.554;10.202;2023-02-15T09:19:04;8.82;;;4.68;;
73940;SDS011;62294;48.554;10.202;2023-02-15T09:21:31;12.30;;;7.72;;
73940;SDS011;62294;48.554;10.202;2023-02-15T09:24:01;25.17;;;10.52;;
73940;SDS011;62294;48.554;10.202;2023-02-15T09:26:31;17.65;;;8.05;;
73940;SDS011;62294;48.554;10.202;2023-02-15T09:29:00;14.32;;;6.95;;
73940;SDS011;62294;48.554;10.202;2023-02-15T09:31:30;12.10;;;5.40;;
73940;SDS011;62294;48.554;10.202;2023-02-15T09:34:03;16.10;;;8.35;;
73940;SDS011;62294;48.554;10.202;2023-02-15T09:36:34;16.33;;;9.00;;
73940;SDS011;62294;48.554;10.202;2023-02-15T09:39:09;11.73;;;5.50;;
73940;SDS011;62294;48.554;10.202;2023-02-15T09:44:25;20.40;;;10.05;;
73940;SDS011;62294;48.554;10.202;2023-02-15T10:00:44;19.83;;;9.60;;
73940;SDS011;62294;48.554;10.202;2023-02-15T10:06:19;24.73;;;10.88;;
73940;SDS011;62294;48.554;10.202;2023-02-15T10:09:22;26.25;;;11.60;;
73940;SDS011;62294;48.554;10.202;2023-02-15T10:31:15;17.88;;;9.80;;
73940;SDS011;62294;48.554;10.202;2023-02-15T10:33:52;17.98;;;9.60;;
73940;SDS011;62294;48.554;10.202;2023-02-15T10:39:27;20.50;;;9.13;;
73940;SDS011;62294;48.554;10.202;2023-02-15T10:42:11;15.68;;;5.95;;
73940;SDS011;62294;48.554;10.202;2023-02-15T11:04:30;12.82;;;7.75;;
73940;SDS011;62294;48.554;10.202;2023-02-15T11:07:07;22.67;;;10.95;;
73940;SDS011;62294;48.554;10.202;2023-02-15T11:09:51;13.75;;;7.38;;
73940;SDS011;62294;48.554;10.202;2023-02-15T11:12:26;17.20;;;7.82;;
73940;SDS011;62294;48.554;10.202;2023-02-15T11:15:01;17.80;;;8.70;;
73940;SDS011;62294;48.554;10.202;2023-02-15T11:17:38;16.75;;;8.50;;
73940;SDS011;62294;48.554;10.202;2023-02-15T11:20:17;22.38;;;10.82;;
73940;SDS011;62294;48.554;10.202;2023-02-15T11:22:51;21.17;;;10.75;;
73940;SDS011;62294;48.554;10.202;2023-02-15T11:25:22;22.90;;;10.45;;
73940;SDS011;62294;48.554;10.202;2023-02-15T11:27:51;19.23;;;8.85;;
73940;SDS011;62294;48.554;10.202;2023-02-15T11:30:21;21.55;;;10.77;;
73940;SDS011;62294;48.554;10.202;2023-02-15T11:32:52;19.05;;;9.55;;
73940;SDS011;62294;48.554;10.202;2023-02-15T11:40:55;21.33;;;10.88;;
73940;SDS011;62294;48.554;10.202;2023-02-15T11:43:28;18.80;;;9.82;;
73940;SDS011;62294;48.554;10.202;2023-02-15T11:46:00;18.10;;;9.25;;
73940;SDS011;62294;48.554;10.202;2023-02-15T11:48:27;19.85;;;9.35;;
73940;SDS011;62294;48.554;10.202;2023-02-15T11:50:57;18.80;;;9.60;;
73940;SDS011;62294;48.554;10.202;2023-02-15T11:53:25;24.92;;;11.60;;
73940;SDS011;62294;48.554;10.202;2023-02-15T11:55:55;24.38;;;11.73;;
73940;SDS011;62294;48.554;10.202;2023-02-15T11:58:42;22.48;;;11.82;;
73940;SDS011;62294;48.554;10.202;2023-02-15T12:01:16;23.65;;;11.35;;
73940;SDS011;62294;48.554;10.202;2023-02-15T12:03:47;25.55;;;11.25;;
73940;SDS011;62294;48.554;10.202;2023-02-15T12:06:18;19.98;;;10.93;;
73940;SDS011;62294;48.554;10.202;2023-02-15T12:17:24;23.15;;;11.55;;
73940;SDS011;62294;48.554;10.202;2023-02-15T12:19:57;21.35;;;9.45;;
73940;SDS011;62294;48.554;10.202;2023-02-15T12:22:28;21.55;;;10.45;;
73940;SDS011;62294;48.554;10.202;2023-02-15T12:24:58;25.27;;;11.45;;
73940;SDS011;62294;48.554;10.202;2023-02-15T12:27:27;19.90;;;10.55;;
73940;SDS011;62294;48.554;10.202;2023-02-15T12:29:56;25.77;;;11.27;;
73940;SDS011;62294;48.554;10.202;2023-02-15T12:32:25;24.88;;;12.70;;
73940;SDS011;62294;48.554;10.202;2023-02-15T12:34:55;17.73;;;8.85;;
73940;SDS011;62294;48.554;10.202;2023-02-15T12:37:28;21.60;;;10.45;;
73940;SDS011;62294;48.554;10.202;2023-02-15T12:39:59;24.48;;;11.55;;
73940;SDS011;62294;48.554;10.202;2023-02-15T12:42:28;17.75;;;9.93;;
73940;SDS011;62294;48.554;10.202;2023-02-15T12:45:22;22.60;;;11.05;;
73940;SDS011;62294;48.554;10.202;2023-02-15T12:48:15;24.58;;;11.95;;
73940;SDS011;62294;48.554;10.202;2023-02-15T12:50:47;23.05;;;11.73;;
73940;SDS011;62294;48.554;10.202;2023-02-15T12:53:32;26.45;;;11.98;;
73940;SDS011;62294;48.554;10.202;2023-02-15T12:56:01;26.30;;;13.63;;
73940;SDS011;62294;48.554;10.202;2023-02-15T12:58:38;29.45;;;13.70;;
73940;SDS011;62294;48.554;10.202;2023-02-15T13:06:27;26.67;;;13.45;;
73940;SDS011;62294;48.554;10.202;2023-02-15T13:09:38;29.02;;;14.30;;
73940;SDS011;62294;48.554;10.202;2023-02-15T13:14:48;27.85;;;13.25;;
73940;SDS011;62294;48.554;10.202;2023-02-15T13:17:18;29.80;;;15.00;;
73940;SDS011;62294;48.554;10.202;2023-02-15T13:19:58;26.35;;;12.93;;
73940;SDS011;62294;48.554;10.202;2023-02-15T13:22:40;24.83;;;13.13;;
73940;SDS011;62294;48.554;10.202;2023-02-15T13:25:29;26.65;;;12.25;;
73940;SDS011;62294;48.554;10.202;2023-02-15T13:28:01;25.48;;;12.20;;
73940;SDS011;62294;48.554;10.202;2023-02-15T13:30:33;25.90;;;13.27;;
73940;SDS011;62294;48.554;10.202;2023-02-15T13:33:03;23.73;;;11.85;;
73940;SDS011;62294;48.554;10.202;2023-02-15T13:35:43;21.73;;;9.75;;
73940;SDS011;62294;48.554;10.202;2023-02-15T13:41:12;25.88;;;12.57;;
73940;SDS011;62294;48.554;10.202;2023-02-15T13:51:45;24.33;;;11.68;;
73940;SDS011;62294;48.554;10.202;2023-02-15T14:02:30;28.83;;;13.98;;
73940;SDS011;62294;48.554;10.202;2023-02-15T14:13:40;25.42;;;12.27;;
73940;SDS011;62294;48.554;10.202;2023-02-15T14:16:33;30.83;;;12.63;;
73940;SDS011;62294;48.554;10.202;2023-02-15T14:19:25;31.33;;;14.10;;
73940;SDS011;62294;48.554;10.202;2023-02-15T14:24:54;18.30;;;8.43;;
73940;SDS011;62294;48.554;10.202;2023-02-15T14:30:34;32.15;;;13.35;;
73940;SDS011;62294;48.554;10.202;2023-02-15T14:33:05;28.52;;;13.23;;
73940;SDS011;62294;48.554;10.202;2023-02-15T14:35:35;26.23;;;12.40;;
73940;SDS011;62294;48.554;10.202;2023-02-15T14:46:23;32.97;;;14.85;;
73940;SDS011;62294;48.554;10.202;2023-02-15T14:49:11;35.08;;;14.38;;
73940;SDS011;62294;48.554;10.202;2023-02-15T14:52:05;31.88;;;14.35;;
73940;SDS011;62294;48.554;10.202;2023-02-15T15:05:18;31.92;;;15.55;;
73940;SDS011;62294;48.554;10.202;2023-02-15T15:07:57;30.90;;;15.10;;
73940;SDS011;62294;48.554;10.202;2023-02-15T15:12:52;30.58;;;14.90;;
73940;SDS011;62294;48.554;10.202;2023-02-15T15:25:49;29.27;;;13.60;;
73940;SDS011;62294;48.554;10.202;2023-02-15T15:31:08;29.33;;;13.95;;
73940;SDS011;62294;48.554;10.202;2023-02-15T15:34:02;27.70;;;11.52;;
73940;SDS011;62294;48.554;10.202;2023-02-15T15:48:38;26.25;;;12.88;;
73940;SDS011;62294;48.554;10.202;2023-02-15T15:51:14;25.52;;;12.98;;
73940;SDS011;62294;48.554;10.202;2023-02-15T15:53:47;31.92;;;14.63;;
73940;SDS011;62294;48.554;10.202;2023-02-15T15:56:23;30.27;;;13.55;;
73940;SDS011;62294;48.554;10.202;2023-02-15T15:58:55;30.45;;;12.82;;
73940;SDS011;62294;48.554;10.202;2023-02-15T16:01:28;30.83;;;14.07;;
73940;SDS011;62294;48.554;10.202;2023-02-15T16:03:57;27.15;;;13.50;;
73940;SDS011;62294;48.554;10.202;2023-02-15T16:11:51;30.17;;;12.77;;
73940;SDS011;62294;48.554;10.202;2023-02-15T16:14:28;25.67;;;12.50;;
73940;SDS011;62294;48.554;10.202;2023-02-15T16:16:59;25.90;;;12.68;;
73940;SDS011;62294;48.554;10.202;2023-02-15T16:19:29;26.77;;;12.95;;
73940;SDS011;62294;48.554;10.202;2023-02-15T16:22:00;29.27;;;13.65;;
73940;SDS011;62294;48.554;10.202;2023-02-15T16:27:14;33.45;;;14.05;;
73940;SDS011;62294;48.554;10.202;2023-02-15T16:29:52;22.50;;;11.98;;
73940;SDS011;62294;48.554;10.202;2023-02-15T16:35:00;27.23;;;12.10;;
73940;SDS011;62294;48.554;10.202;2023-02-15T16:37:33;22.85;;;12.18;;
73940;SDS011;62294;48.554;10.202;2023-02-15T16:40:00;27.48;;;12.07;;
73940;SDS011;62294;48.554;10.202;2023-02-15T16:42:27;26.50;;;12.48;;
73940;SDS011;62294;48.554;10.202;2023-02-15T16:44:55;23.77;;;11.52;;
73940;SDS011;62294;48.554;10.202;2023-02-15T16:47:30;27.98;;;12.18;;
73940;SDS011;62294;48.554;10.202;2023-02-15T16:50:01;25.70;;;12.38;;
73940;SDS011;62294;48.554;10.202;2023-02-15T16:52:30;24.65;;;11.80;;
73940;SDS011;62294;48.554;10.202;2023-02-15T16:55:01;26.52;;;12.48;;
73940;SDS011;62294;48.554;10.202;2023-02-15T16:57:31;22.25;;;11.18;;
73940;SDS011;62294;48.554;10.202;2023-02-15T17:00:03;26.08;;;12.10;;
73940;SDS011;62294;48.554;10.202;2023-02-15T17:02:34;21.10;;;10.43;;
73940;SDS011;62294;48.554;10.202;2023-02-15T17:05:21;27.33;;;11.60;;
73940;SDS011;62294;48.554;10.202;2023-02-15T17:07:50;26.17;;;12.77;;
73940;SDS011;62294;48.554;10.202;2023-02-15T17:10:35;24.02;;;11.10;;
73940;SDS011;62294;48.554;10.202;2023-02-15T17:13:14;22.67;;;11.38;;
73940;SDS011;62294;48.554;10.202;2023-02-15T17:15:43;26.75;;;11.77;;
73940;SDS011;62294;48.554;10.202;2023-02-15T17:18:36;19.23;;;11.30;;
73940;SDS011;62294;48.554;10.202;2023-02-15T17:21:16;22.90;;;11.85;;
73940;SDS011;62294;48.554;10.202;2023-02-15T17:26:18;19.83;;;10.57;;
73940;SDS011;62294;48.554;10.202;2023-02-15T17:28:48;23.20;;;12.23;;
73940;SDS011;62294;48.554;10.202;2023-02-15T17:31:17;18.48;;;10.30;;
73940;SDS011;62294;48.554;10.202;2023-02-15T17:33:45;18.75;;;9.52;;
73940;SDS011;62294;48.554;10.202;2023-02-15T17:36:12;20.60;;;10.00;;
73940;SDS011;62294;48.554;10.202;2023-02-15T17:41:27;39.88;;;15.05;;
73940;SDS011;62294;48.554;10.202;2023-02-15T17:44:01;20.33;;;11.18;;
73940;SDS011;62294;48.554;10.202;2023-02-15T17:46:29;28.52;;;14.15;;
73940;SDS011;62294;48.554;10.202;2023-02-15T17:49:00;22.58;;;11.18;;
73940;SDS011;62294;48.554;10.202;2023-02-15T17:51:27;20.20;;;11.25;;
73940;SDS011;62294;48.554;10.202;2023-02-15T17:53:54;16.85;;;9.30;;
73940;SDS011;62294;48.554;10.202;2023-02-15T17:56:39;16.27;;;8.13;;
73940;SDS011;62294;48.554;10.202;2023-02-15T17:59:06;20.35;;;10.65;;
73940;SDS011;62294;48.554;10.202;2023-02-15T18:01:33;21.13;;;11.40;;
73940;SDS011;62294;48.554;10.202;2023-02-15T18:04:20;19.88;;;9.52;;
73940;SDS011;62294;48.554;10.202;2023-02-15T18:07:07;19.13;;;9.68;;
73940;SDS011;62294;48.554;10.202;2023-02-15T18:09:54;19.92;;;9.60;;
73940;SDS011;62294;48.554;10.202;2023-02-15T18:12:39;22.73;;;10.30;;
73940;SDS011;62294;48.554;10.202;2023-02-15T18:15:06;17.40;;;9.98;;